Time;durP1;ratioP1;P1;durP2;ratioP2;P2;SDS_P1;SDS_P2;PMS_P1;PMS_P2;Temp;Humidity;BMP_temperature;BMP_pressure;BME280_temperature;BME280_humidity;BME280_pressure;Samples;Min_cycle;Max_cycle;Signal;HPM_P1;HPM_P2
2021/10/25 00:01:04;;;;;;;0.80;0.80;;;5.90;99.90;;;;;;4937020;29;20443;-81
2021/10/25 00:03:31;;;;;;;0.60;0.60;;;5.90;99.90;;;;;;4936765;29;20498;-81
2021/10/25 00:05:58;;;;;;;0.40;0.30;;;5.90;99.90;;;;;;4936712;29;20435;-81
2021/10/25 00:08:25;;;;;;;1.03;0.60;;;5.90;99.90;;;;;;4936621;29;20444;-81
2021/10/25 00:10:52;;;;;;;0.40;0.33;;;5.80;99.90;;;;;;4936597;29;20955;-81
2021/10/25 00:13:19;;;;;;;0.63;0.63;;;5.80;99.90;;;;;;4936695;29;20479;-81
2021/10/25 00:15:47;;;;;;;0.60;0.60;;;5.80;99.90;;;;;;4936776;29;20447;-81
2021/10/25 00:18:13;;;;;;;0.30;0.30;;;5.70;99.90;;;;;;4936157;29;20486;-81
2021/10/25 00:20:40;;;;;;;0.30;0.30;;;5.70;99.90;;;;;;4936680;29;20552;-81
2021/10/25 00:23:07;;;;;;;0.50;0.50;;;5.70;99.90;;;;;;4936592;29;20900;-81
2021/10/25 00:25:34;;;;;;;0.47;0.40;;;5.80;99.90;;;;;;4936393;29;20597;-81
2021/10/25 00:28:01;;;;;;;0.47;0.47;;;5.70;99.90;;;;;;4936317;29;20435;-81
2021/10/25 00:30:28;;;;;;;0.40;0.30;;;5.70;99.90;;;;;;4936571;29;20458;-81
2021/10/25 00:32:56;;;;;;;0.50;0.50;;;5.70;99.90;;;;;;4936424;29;20498;-81
2021/10/25 00:35:23;;;;;;;0.30;0.30;;;5.70;99.90;;;;;;4936378;29;20452;-81
2021/10/25 00:37:50;;;;;;;0.40;0.40;;;5.70;99.90;;;;;;4936391;29;20455;-81
2021/10/25 00:40:17;;;;;;;0.40;0.40;;;5.80;99.90;;;;;;4936367;29;20462;-81
2021/10/25 00:42:44;;;;;;;0.53;0.50;;;5.80;99.90;;;;;;4935925;29;20463;-81
2021/10/25 00:45:10;;;;;;;1.43;1.00;;;5.80;99.90;;;;;;4936254;29;20479;-81
2021/10/25 00:47:37;;;;;;;0.30;0.30;;;5.80;99.90;;;;;;4936069;29;20439;-81
2021/10/25 00:50:06;;;;;;;0.30;0.30;;;5.90;99.90;;;;;;4936280;29;20458;-81
2021/10/25 00:52:36;;;;;;;0.50;0.50;;;5.90;99.90;;;;;;4935763;29;20993;-81
2021/10/25 00:55:05;;;;;;;0.30;0.30;;;5.90;99.90;;;;;;4936237;29;20446;-81
2021/10/25 00:57:31;;;;;;;2.10;0.50;;;5.90;99.90;;;;;;4936146;29;20455;-81
2021/10/25 00:59:58;;;;;;;0.40;0.37;;;5.90;99.90;;;;;;4937136;29;20458;-88
2021/10/25 01:02:25;;;;;;;0.57;0.57;;;6.00;99.90;;;;;;4936959;29;20475;-88
2021/10/25 01:04:52;;;;;;;0.40;0.30;;;6.00;99.90;;;;;;4936362;29;20491;-88
2021/10/25 01:07:21;;;;;;;0.40;0.40;;;6.00;99.90;;;;;;4937705;29;20806;-88
2021/10/25 01:09:49;;;;;;;0.93;0.93;;;6.00;99.90;;;;;;4937085;29;21030;-87
2021/10/25 01:12:16;;;;;;;0.30;0.30;;;6.00;99.90;;;;;;4936633;29;20455;-88
2021/10/25 01:14:43;;;;;;;0.30;0.30;;;6.00;99.90;;;;;;4937260;29;20443;-88
2021/10/25 01:17:10;;;;;;;0.30;0.30;;;6.00;99.90;;;;;;4936912;29;20491;-88
2021/10/25 01:19:37;;;;;;;0.80;0.53;;;6.00;99.90;;;;;;4937040;29;20780;-88
2021/10/25 01:22:05;;;;;;;0.60;0.50;;;6.00;99.90;;;;;;4936802;29;20479;-88
2021/10/25 01:24:32;;;;;;;1.23;0.57;;;6.00;99.90;;;;;;4936833;29;20498;-88
2021/10/25 01:26:59;;;;;;;0.30;0.30;;;5.90;99.90;;;;;;4936991;29;20462;-88
2021/10/25 01:29:25;;;;;;;0.70;0.70;;;5.90;99.90;;;;;;4936837;29;20443;-88
2021/10/25 01:31:52;;;;;;;1.07;0.70;;;5.80;99.90;;;;;;4936906;29;20475;-88
2021/10/25 01:34:19;;;;;;;0.30;0.30;;;5.80;99.90;;;;;;4936640;29;20457;-88
2021/10/25 01:36:46;;;;;;;0.60;0.40;;;5.70;99.90;;;;;;4936666;29;20474;-88
2021/10/25 01:39:14;;;;;;;0.37;0.37;;;5.70;99.90;;;;;;4936445;29;20962;-88
2021/10/25 01:41:40;;;;;;;0.37;0.37;;;5.70;99.90;;;;;;4936613;29;20837;-88
2021/10/25 01:44:11;;;;;;;0.60;0.60;;;5.60;99.90;;;;;;4936661;29;20435;-88
2021/10/25 01:46:38;;;;;;;0.40;0.40;;;5.60;99.90;;;;;;4937324;29;20463;-88
2021/10/25 01:49:06;;;;;;;0.70;0.70;;;5.60;99.90;;;;;;4936480;29;20447;-87
2021/10/25 01:51:33;;;;;;;0.40;0.40;;;5.60;99.90;;;;;;4936277;29;20487;-88
2021/10/25 01:54:00;;;;;;;0.30;0.30;;;5.50;99.90;;;;;;4936512;29;20953;-88
2021/10/25 01:56:29;;;;;;;0.40;0.40;;;5.50;99.90;;;;;;4936451;29;20435;-88
2021/10/25 01:58:56;;;;;;;0.60;0.60;;;5.40;99.90;;;;;;4936277;29;20455;-88
2021/10/25 02:01:23;;;;;;;0.30;0.30;;;5.40;99.90;;;;;;4936263;29;20438;-88
2021/10/25 02:03:50;;;;;;;0.30;0.30;;;5.40;99.90;;;;;;4936247;29;20955;-88
2021/10/25 02:06:18;;;;;;;0.30;0.30;;;5.40;99.90;;;;;;4936559;29;20489;-88
2021/10/25 02:08:45;;;;;;;1.17;0.50;;;5.40;99.90;;;;;;4936501;29;20455;-88
2021/10/25 02:11:12;;;;;;;1.33;0.97;;;5.40;99.90;;;;;;4936193;29;20459;-88
2021/10/25 02:13:41;;;;;;;0.30;0.30;;;5.40;99.90;;;;;;4936593;29;20462;-88
2021/10/25 02:16:08;;;;;;;0.60;0.60;;;5.40;99.90;;;;;;4939356;29;20474;-88
2021/10/25 02:18:35;;;;;;;0.47;0.47;;;5.40;99.90;;;;;;4939483;29;20494;-88
2021/10/25 02:21:02;;;;;;;0.40;0.40;;;5.40;99.90;;;;;;4940033;29;20463;-88
2021/10/25 02:23:29;;;;;;;0.40;0.40;;;5.40;99.90;;;;;;4939665;29;20489;-88
2021/10/25 02:25:56;;;;;;;0.30;0.30;;;5.40;99.90;;;;;;4939193;29;20486;-88
2021/10/25 02:28:22;;;;;;;0.30;0.30;;;5.40;99.90;;;;;;4939718;29;20848;-88
2021/10/25 02:30:52;;;;;;;1.20;0.50;;;5.40;99.90;;;;;;4939711;29;20455;-88
2021/10/25 02:33:19;;;;;;;0.60;0.60;;;5.40;99.90;;;;;;4939683;29;20475;-88
2021/10/25 02:35:46;;;;;;;0.30;0.30;;;5.40;99.90;;;;;;4939616;29;20821;-88
2021/10/25 02:38:13;;;;;;;0.30;0.30;;;5.40;99.90;;;;;;4939541;29;20478;-88
2021/10/25 02:40:40;;;;;;;0.70;0.70;;;5.30;99.90;;;;;;4939396;29;20466;-88
2021/10/25 02:43:08;;;;;;;0.30;0.30;;;5.30;99.90;;;;;;4939177;29;20475;-88
2021/10/25 02:45:35;;;;;;;2.83;0.60;;;5.30;99.90;;;;;;4939247;29;20478;-87
2021/10/25 02:48:05;;;;;;;0.40;0.30;;;5.30;99.90;;;;;;4939349;29;20467;-88
2021/10/25 02:50:31;;;;;;;0.63;0.30;;;5.30;99.90;;;;;;4939059;29;20877;-88
2021/10/25 02:52:58;;;;;;;0.30;0.30;;;5.30;99.90;;;;;;4939027;29;20484;-88
2021/10/25 02:55:25;;;;;;;0.30;0.30;;;5.30;99.90;;;;;;4938838;29;20447;-88
2021/10/25 02:57:52;;;;;;;0.30;0.30;;;5.30;99.90;;;;;;4939060;29;21061;-88
2021/10/25 03:00:19;;;;;;;0.57;0.57;;;5.20;99.90;;;;;;4938776;29;20466;-88
2021/10/25 03:02:46;;;;;;;0.40;0.30;;;5.20;99.90;;;;;;4939099;29;20475;-87
2021/10/25 03:05:15;;;;;;;0.30;0.20;;;5.20;99.90;;;;;;4938566;29;20569;-88
2021/10/25 03:07:43;;;;;;;0.50;0.30;;;5.30;99.90;;;;;;4938854;29;20459;-88
2021/10/25 03:10:10;;;;;;;0.30;0.30;;;5.30;99.90;;;;;;4938753;29;20443;-88
2021/10/25 03:12:37;;;;;;;0.93;0.93;;;5.20;99.90;;;;;;4938843;29;20471;-88
2021/10/25 03:15:04;;;;;;;0.30;0.30;;;5.20;99.90;;;;;;4938995;29;20502;-88
2021/10/25 03:17:31;;;;;;;0.30;0.30;;;5.20;99.90;;;;;;4938536;29;20487;-88
2021/10/25 03:19:58;;;;;;;0.70;0.70;;;5.20;99.90;;;;;;4938639;29;20455;-87
2021/10/25 03:22:26;;;;;;;0.33;0.33;;;5.10;99.90;;;;;;4938660;29;20471;-87
2021/10/25 03:24:53;;;;;;;0.30;0.30;;;5.10;99.90;;;;;;4938537;29;20470;-88
2021/10/25 03:27:19;;;;;;;0.30;0.30;;;5.10;99.90;;;;;;4937982;29;20894;-88
2021/10/25 03:29:46;;;;;;;0.40;0.40;;;5.10;99.90;;;;;;4938309;29;20440;-88
2021/10/25 03:32:14;;;;;;;0.40;0.30;;;5.10;99.90;;;;;;4938124;29;20832;-88
2021/10/25 03:34:41;;;;;;;0.33;0.33;;;5.10;99.90;;;;;;4938454;29;20546;-87
2021/10/25 03:37:08;;;;;;;0.30;0.27;;;5.10;99.90;;;;;;4938104;29;20451;-88
2021/10/25 03:39:38;;;;;;;0.30;0.30;;;5.10;99.90;;;;;;4937948;29;20431;-88
2021/10/25 03:42:10;;;;;;;0.50;0.50;;;5.00;99.90;;;;;;4938393;29;20900;-88
2021/10/25 03:44:43;;;;;;;0.30;0.30;;;5.00;99.90;;;;;;4939027;29;20791;-87
2021/10/25 03:47:14;;;;;;;0.30;0.30;;;5.00;99.90;;;;;;4938909;29;20540;-88
2021/10/25 03:49:45;;;;;;;1.00;0.80;;;5.00;99.90;;;;;;4949713;29;20471;-91
2021/10/25 03:52:18;;;;;;;0.70;0.43;;;5.00;99.90;;;;;;4942878;29;20470;-91
2021/10/25 03:54:49;;;;;;;2.30;0.83;;;5.00;99.90;;;;;;4938269;29;20840;-92
2021/10/25 04:25:15;;;;;;;0.30;0.30;;;4.90;99.90;;;;;;4938304;29;20419;-92
2021/10/25 04:25:33;;;;;;;0.40;0.30;;;4.90;99.90;;;;;;4938839;29;20426;-91
2021/10/25 04:28:06;;;;;;;0.40;0.40;;;4.90;99.90;;;;;;4938173;29;20502;-91
2021/10/25 04:30:33;;;;;;;0.40;0.40;;;4.90;99.90;;;;;;4938426;29;20517;-91
2021/10/25 04:33:01;;;;;;;0.43;0.43;;;4.90;99.90;;;;;;4937919;29;20558;-91
2021/10/25 04:35:28;;;;;;;0.50;0.50;;;4.90;99.90;;;;;;4937927;29;20818;-91
2021/10/25 04:37:54;;;;;;;0.30;0.30;;;4.90;99.90;;;;;;4937245;29;20451;-91
2021/10/25 04:40:21;;;;;;;1.87;0.43;;;4.90;99.90;;;;;;4937186;29;20451;-91
2021/10/25 04:42:48;;;;;;;0.30;0.30;;;4.90;99.90;;;;;;4937118;29;20456;-92
2021/10/25 04:45:18;;;;;;;1.07;1.07;;;4.90;99.90;;;;;;4937349;29;20490;-92
2021/10/25 04:47:45;;;;;;;1.03;1.03;;;4.90;99.90;;;;;;4937327;29;20463;-92
2021/10/25 04:50:12;;;;;;;1.23;0.53;;;4.90;99.90;;;;;;4937202;29;20457;-92
2021/10/25 04:52:39;;;;;;;0.40;0.40;;;4.90;99.90;;;;;;4937387;29;20483;-91
2021/10/25 04:55:07;;;;;;;0.30;0.30;;;4.90;99.90;;;;;;4937400;29;20886;-91
2021/10/25 04:57:33;;;;;;;0.30;0.30;;;4.80;99.90;;;;;;4937179;29;20951;-92
2021/10/25 05:00:00;;;;;;;0.70;0.70;;;4.90;99.90;;;;;;4937253;29;20435;-92
2021/10/25 05:02:28;;;;;;;0.30;0.30;;;4.90;99.90;;;;;;4937571;29;20468;-91
2021/10/25 05:04:56;;;;;;;0.83;0.60;;;4.90;99.90;;;;;;4937139;29;20885;-91
2021/10/25 05:07:23;;;;;;;0.30;0.30;;;4.90;99.90;;;;;;4937161;29;21028;-91
2021/10/25 05:09:49;;;;;;;0.30;0.30;;;4.90;99.90;;;;;;4936924;29;20969;-91
2021/10/25 05:12:16;;;;;;;0.40;0.33;;;4.90;99.90;;;;;;4937119;29;20475;-92
2021/10/25 05:14:44;;;;;;;0.40;0.33;;;4.80;99.90;;;;;;4937360;29;21018;-91
2021/10/25 05:17:11;;;;;;;0.30;0.20;;;4.80;99.90;;;;;;4937249;29;20487;-91
2021/10/25 05:19:39;;;;;;;0.30;0.30;;;4.80;99.90;;;;;;4936905;29;20942;-91
2021/10/25 05:22:07;;;;;;;1.37;0.50;;;4.80;99.90;;;;;;4936965;29;20471;-91
2021/10/25 05:24:34;;;;;;;0.30;0.30;;;4.80;99.90;;;;;;4936996;29;20451;-91
2021/10/25 05:27:01;;;;;;;0.50;0.37;;;4.80;99.90;;;;;;4936673;29;20998;-92
2021/10/25 05:29:28;;;;;;;0.33;0.33;;;4.80;99.90;;;;;;4936945;29;20451;-91
2021/10/25 05:31:54;;;;;;;0.47;0.47;;;4.80;99.90;;;;;;4937031;29;20990;-91
2021/10/25 05:34:21;;;;;;;0.30;0.30;;;4.80;99.90;;;;;;4937006;29;20538;-92
2021/10/25 05:36:49;;;;;;;0.30;0.30;;;4.80;99.90;;;;;;4936668;29;20539;-91
2021/10/25 05:39:16;;;;;;;1.33;0.80;;;4.80;99.90;;;;;;4936954;29;20469;-91
2021/10/25 05:41:44;;;;;;;0.60;0.60;;;4.80;99.90;;;;;;4936843;29;20505;-91
2021/10/25 05:44:11;;;;;;;0.30;0.30;;;4.80;99.90;;;;;;4936592;29;20447;-91
2021/10/25 05:46:38;;;;;;;0.40;0.30;;;4.80;99.90;;;;;;4936894;29;20475;-91
2021/10/25 05:49:06;;;;;;;0.30;0.20;;;4.80;99.90;;;;;;4937132;29;20943;-91
2021/10/25 05:51:32;;;;;;;0.60;0.60;;;4.80;99.90;;;;;;4940982;29;20483;-92
2021/10/25 05:54:04;;;;;;;0.40;0.40;;;4.90;99.90;;;;;;4940478;29;20447;-92
2021/10/25 05:56:31;;;;;;;0.30;0.30;;;5.00;99.90;;;;;;4940286;29;20439;-92
2021/10/25 05:58:57;;;;;;;0.30;0.30;;;5.00;99.90;;;;;;4940485;29;20566;-92
2021/10/25 06:01:28;;;;;;;0.60;0.40;;;5.00;99.90;;;;;;4940010;29;20435;-91
2021/10/25 06:03:59;;;;;;;0.50;0.30;;;5.00;99.90;;;;;;4940342;29;20439;-92
2021/10/25 06:06:26;;;;;;;1.07;0.60;;;5.00;99.90;;;;;;4940339;29;20991;-92
2021/10/25 06:08:53;;;;;;;0.30;0.30;;;4.90;99.90;;;;;;4940032;29;20443;-92
2021/10/25 06:11:21;;;;;;;0.40;0.30;;;4.90;99.90;;;;;;4939864;29;20881;-91
2021/10/25 06:13:48;;;;;;;0.90;0.90;;;4.90;99.90;;;;;;4940281;29;20455;-92
2021/10/25 06:16:17;;;;;;;0.40;0.40;;;4.90;99.90;;;;;;4941281;29;20453;-92
2021/10/25 06:18:44;;;;;;;0.40;0.40;;;4.90;99.90;;;;;;4941146;29;20880;-92
2021/10/25 06:21:12;;;;;;;0.30;0.30;;;4.80;99.90;;;;;;4941269;29;20436;-92
2021/10/25 06:23:39;;;;;;;0.70;0.70;;;4.90;99.90;;;;;;4941715;29;20444;-91
2021/10/25 06:26:07;;;;;;;0.30;0.30;;;4.80;99.90;;;;;;4940669;29;21041;-92
2021/10/25 06:28:35;;;;;;;0.30;0.30;;;4.80;99.90;;;;;;4941413;29;20462;-92
2021/10/25 06:31:05;;;;;;;0.63;0.63;;;4.90;99.90;;;;;;4941328;29;20963;-92
2021/10/25 06:33:36;;;;;;;0.50;0.50;;;4.90;99.90;;;;;;4942667;29;20853;-92
2021/10/25 06:36:05;;;;;;;0.37;0.37;;;4.90;99.90;;;;;;4941451;29;20526;-92
2021/10/25 06:38:36;;;;;;;0.40;0.37;;;5.00;99.90;;;;;;4939675;29;20466;-92
2021/10/25 06:41:04;;;;;;;0.30;0.20;;;5.00;99.90;;;;;;4939919;29;20884;-92
2021/10/25 06:43:31;;;;;;;0.30;0.30;;;5.10;99.90;;;;;;4939500;29;20455;-93
2021/10/25 06:46:00;;;;;;;0.30;0.30;;;5.10;99.90;;;;;;4939753;29;20533;-92
2021/10/25 06:48:28;;;;;;;0.40;0.40;;;5.10;99.90;;;;;;4939811;29;20463;-92
2021/10/25 06:50:55;;;;;;;0.30;0.30;;;5.20;99.90;;;;;;4939664;29;20443;-92
2021/10/25 06:53:22;;;;;;;0.30;0.30;;;5.30;99.90;;;;;;4939359;29;20479;-92
2021/10/25 06:55:49;;;;;;;0.50;0.50;;;5.30;99.90;;;;;;4939658;29;20439;-93
2021/10/25 06:58:15;;;;;;;0.30;0.30;;;5.40;99.90;;;;;;4939730;29;20447;-92
2021/10/25 07:00:43;;;;;;;0.60;0.60;;;5.40;99.90;;;;;;4939112;29;20502;-93
2021/10/25 07:03:11;;;;;;;0.50;0.33;;;5.50;99.90;;;;;;4938847;29;20487;-93
2021/10/25 07:05:39;;;;;;;1.07;0.97;;;5.50;99.90;;;;;;4939333;29;20445;-93
2021/10/25 07:08:06;;;;;;;0.50;0.50;;;5.50;99.90;;;;;;4939077;29;20439;-93
2021/10/25 07:10:38;;;;;;;0.50;0.50;;;5.50;99.90;;;;;;4939290;29;20488;-92
2021/10/25 07:13:06;;;;;;;0.50;0.50;;;5.50;99.90;;;;;;4939118;29;20490;-93
2021/10/25 07:15:36;;;;;;;0.40;0.40;;;5.40;99.90;;;;;;4939252;29;20868;-93
2021/10/25 07:18:09;;;;;;;0.30;0.30;;;5.40;99.90;;;;;;4938787;29;20479;-93
2021/10/25 07:20:55;;;;;;;0.30;0.30;;;5.50;99.90;;;;;;4939173;29;20506;-93
2021/10/25 07:59:45;;;;;;;0.50;0.50;;;7.00;99.90;;;;;;4938316;29;20399;-92
2021/10/25 08:05:16;;;;;;;0.50;0.30;;;7.10;99.90;;;;;;4936803;29;20462;-81
2021/10/25 08:07:46;;;;;;;0.30;0.30;;;7.10;99.90;;;;;;4936966;29;20475;-80
2021/10/25 08:10:17;;;;;;;0.90;0.50;;;7.10;99.90;;;;;;4936920;29;20461;-81
2021/10/25 08:12:47;;;;;;;2.60;0.50;;;7.10;99.90;;;;;;4936163;29;20475;-81
2021/10/25 08:15:22;;;;;;;1.37;0.60;;;7.10;99.90;;;;;;4936856;29;20478;-81
2021/10/25 08:17:52;;;;;;;0.40;0.40;;;7.10;99.90;;;;;;4947903;29;20483;-91
2021/10/25 08:20:18;;;;;;;0.70;0.67;;;7.00;99.90;;;;;;4951518;29;20920;-93
2021/10/25 08:22:45;;;;;;;0.50;0.50;;;7.10;99.90;;;;;;4947168;29;20459;-92
2021/10/25 08:25:14;;;;;;;1.73;0.47;;;7.20;99.90;;;;;;4937862;29;20446;-92
2021/10/25 08:27:43;;;;;;;0.40;0.27;;;7.30;99.90;;;;;;4937391;29;20483;-92
2021/10/25 08:30:12;;;;;;;1.10;0.80;;;7.30;99.90;;;;;;4937747;29;20455;-93
2021/10/25 08:32:48;;;;;;;0.37;0.30;;;7.30;99.90;;;;;;4937564;29;20522;-93
2021/10/25 08:35:31;;;;;;;1.43;1.17;;;7.50;99.90;;;;;;4938301;29;20534;-91
2021/10/25 08:40:43;;;;;;;0.30;0.30;;;7.80;99.90;;;;;;4937744;29;20411;-92
2021/10/25 08:43:12;;;;;;;0.40;0.40;;;8.10;99.90;;;;;;4937532;29;20991;-92
2021/10/25 08:45:39;;;;;;;0.30;0.30;;;8.40;99.90;;;;;;4937307;29;20554;-92
2021/10/25 08:48:08;;;;;;;0.40;0.40;;;8.70;99.90;;;;;;4935649;29;20489;-93
2021/10/25 08:50:35;;;;;;;0.60;0.40;;;9.00;99.90;;;;;;4936434;29;20435;-92
2021/10/25 08:53:05;;;;;;;0.30;0.30;;;9.40;99.90;;;;;;4937483;29;20477;-91
2021/10/25 08:55:32;;;;;;;1.67;0.50;;;9.80;99.90;;;;;;4944106;29;20476;-89
2021/10/25 08:58:00;;;;;;;0.30;0.30;;;10.40;99.90;;;;;;4951251;29;20432;-91
2021/10/25 09:00:36;;;;;;;1.77;0.47;;;11.00;99.90;;;;;;4946969;29;20416;-91
2021/10/25 09:03:04;;;;;;;0.43;0.40;;;11.70;99.90;;;;;;4941315;29;20478;-92
2021/10/25 09:05:32;;;;;;;2.27;0.70;;;12.00;99.90;;;;;;4937331;29;20420;-92
2021/10/25 09:08:03;;;;;;;1.13;0.57;;;11.90;99.90;;;;;;4937273;29;20566;-92
2021/10/25 09:10:32;;;;;;;0.40;0.30;;;11.90;99.90;;;;;;4938056;29;20475;-92
2021/10/25 09:13:02;;;;;;;0.50;0.50;;;12.00;99.90;;;;;;4937174;29;20481;-93
2021/10/25 09:15:31;;;;;;;0.50;0.50;;;12.90;99.90;;;;;;4937235;29;20527;-93
2021/10/25 09:18:00;;;;;;;0.40;0.30;;;14.20;99.90;;;;;;4937127;29;20471;-93
2021/10/25 09:20:27;;;;;;;0.60;0.60;;;15.00;99.90;;;;;;4936917;29;21060;-94
2021/10/25 09:23:08;;;;;;;1.13;0.40;;;15.20;99.90;;;;;;4936762;29;21005;-92
2021/10/25 09:25:36;;;;;;;0.80;0.40;;;15.00;99.90;;;;;;4939425;29;21050;-92
2021/10/25 09:28:17;;;;;;;0.50;0.50;;;14.60;99.90;;;;;;4941122;29;20486;-93
2021/10/25 09:30:50;;;;;;;0.90;0.90;;;14.10;99.90;;;;;;4940589;29;20443;-81
2021/10/25 09:33:22;;;;;;;0.80;0.60;;;13.80;99.90;;;;;;4939747;29;20482;-81
2021/10/25 09:35:55;;;;;;;0.70;0.40;;;13.50;99.90;;;;;;4939763;29;20435;-80
2021/10/25 09:38:29;;;;;;;0.50;0.40;;;13.40;99.90;;;;;;4939633;29;20436;-81
2021/10/25 09:46:38;;;;;;;1.67;1.10;;;13.50;99.90;;;;;;4939566;29;20899;-81
2021/10/25 09:49:08;;;;;;;1.00;0.33;;;13.50;99.90;;;;;;4939444;29;20462;-80
2021/10/25 09:51:37;;;;;;;0.40;0.33;;;13.50;99.90;;;;;;4939410;29;20903;-81
2021/10/25 09:54:05;;;;;;;0.50;0.50;;;13.60;99.90;;;;;;4939392;29;20498;-81
2021/10/25 09:56:34;;;;;;;3.43;0.60;;;13.60;99.90;;;;;;4939347;29;20443;-81
2021/10/25 09:59:10;;;;;;;0.40;0.40;;;13.50;99.90;;;;;;4939559;29;20448;-81
2021/10/25 10:01:40;;;;;;;1.03;0.50;;;13.50;99.90;;;;;;4939203;29;20561;-80
2021/10/25 10:04:09;;;;;;;0.60;0.37;;;13.40;99.90;;;;;;4940099;29;20447;-81
2021/10/25 10:06:36;;;;;;;0.50;0.47;;;13.30;99.90;;;;;;4938847;29;20842;-81
2021/10/25 10:09:03;;;;;;;0.50;0.40;;;13.20;99.90;;;;;;4939650;29;20431;-93
2021/10/25 10:11:32;;;;;;;0.40;0.37;;;13.20;99.90;;;;;;4940339;29;20484;-93
2021/10/25 10:14:02;;;;;;;0.40;0.40;;;13.20;99.90;;;;;;4940747;29;20459;-92
2021/10/25 10:16:29;;;;;;;0.50;0.40;;;13.20;99.90;;;;;;4940162;29;20470;-92
2021/10/25 10:19:02;;;;;;;0.57;0.57;;;13.40;99.90;;;;;;4939822;29;20487;-95
2021/10/25 10:21:30;;;;;;;1.60;0.50;;;13.50;99.90;;;;;;4940497;29;20449;-92
2021/10/25 10:24:03;;;;;;;1.33;0.50;;;13.80;99.90;;;;;;4940222;29;20446;-92
2021/10/25 10:26:32;;;;;;;0.50;0.40;;;14.00;99.90;;;;;;4940061;29;20440;-92
2021/10/25 10:29:12;;;;;;;0.47;0.47;;;14.30;99.90;;;;;;4940385;29;20436;-92
2021/10/25 10:31:39;;;;;;;0.40;0.40;;;14.40;99.90;;;;;;4939916;29;20475;-91
2021/10/25 10:34:14;;;;;;;0.50;0.50;;;14.50;99.90;;;;;;4940002;29;20438;-91
2021/10/25 10:36:51;;;;;;;0.40;0.40;;;14.50;99.90;;;;;;4939627;29;20434;-92
2021/10/25 10:39:18;;;;;;;0.67;0.67;;;14.50;99.90;;;;;;4940032;29;20408;-92
2021/10/25 10:41:52;;;;;;;0.70;0.40;;;14.50;99.90;;;;;;4939971;29;20498;-92
2021/10/25 10:44:21;;;;;;;0.50;0.50;;;14.60;99.90;;;;;;4939710;29;20435;-91
2021/10/25 10:46:51;;;;;;;0.40;0.40;;;14.50;99.90;;;;;;4939731;29;20412;-91
2021/10/25 10:49:21;;;;;;;0.57;0.57;;;14.60;99.90;;;;;;4939613;29;20903;-90
2021/10/25 10:52:11;;;;;;;0.60;0.60;;;14.70;99.90;;;;;;4939206;29;20485;-92
2021/10/25 10:54:43;;;;;;;0.87;0.50;;;14.60;99.90;;;;;;4939726;29;20876;-90
2021/10/25 10:57:24;;;;;;;0.50;0.50;;;14.50;99.90;;;;;;4939585;29;20447;-90
2021/10/25 10:59:59;;;;;;;1.03;0.73;;;14.50;99.90;;;;;;4939049;29;20443;-91
2021/10/25 11:02:26;;;;;;;0.50;0.50;;;14.60;99.90;;;;;;4939295;29;20487;-90
2021/10/25 11:05:05;;;;;;;0.50;0.50;;;14.60;99.90;;;;;;4939515;29;20783;-91
2021/10/25 11:07:40;;;;;;;0.63;0.50;;;14.70;99.90;;;;;;4938965;29;20471;-92
2021/10/25 11:10:10;;;;;;;0.50;0.40;;;14.80;99.90;;;;;;4938791;29;20446;-90
2021/10/25 11:12:42;;;;;;;0.40;0.40;;;14.80;99.90;;;;;;4938815;29;20463;-91
2021/10/25 11:15:14;;;;;;;1.10;0.40;;;14.80;99.90;;;;;;4939146;29;20467;-91
2021/10/25 11:17:41;;;;;;;0.40;0.40;;;14.80;99.90;;;;;;4938864;29;20864;-91
2021/10/25 11:20:10;;;;;;;0.40;0.30;;;14.80;99.90;;;;;;4938727;29;20462;-92
2021/10/25 11:22:39;;;;;;;0.50;0.43;;;14.80;99.90;;;;;;4938893;29;20526;-91
2021/10/25 11:25:09;;;;;;;0.40;0.33;;;14.80;99.90;;;;;;4938901;29;20466;-92
2021/10/25 11:27:39;;;;;;;0.60;0.40;;;14.80;99.90;;;;;;4938655;29;20522;-91
2021/10/25 11:30:13;;;;;;;0.43;0.43;;;14.90;99.90;;;;;;4938675;29;20455;-91
2021/10/25 11:32:41;;;;;;;0.40;0.30;;;14.90;99.90;;;;;;4938398;29;20471;-91
2021/10/25 11:35:10;;;;;;;0.40;0.40;;;14.80;99.90;;;;;;4938771;29;20463;-91
2021/10/25 11:37:38;;;;;;;0.90;0.60;;;14.80;99.90;;;;;;4939238;29;20991;-91
2021/10/25 11:40:08;;;;;;;0.57;0.40;;;14.90;99.90;;;;;;4938693;29;20827;-90
2021/10/25 11:42:37;;;;;;;0.40;0.30;;;14.80;99.90;;;;;;4938456;29;20523;-91
2021/10/25 11:45:07;;;;;;;0.40;0.40;;;14.80;99.90;;;;;;4938555;29;20454;-91
2021/10/25 11:47:37;;;;;;;0.40;0.40;;;14.80;99.40;;;;;;4937833;29;20534;-90
2021/10/25 11:50:06;;;;;;;0.50;0.30;;;14.70;98.70;;;;;;4938709;29;20451;-90
2021/10/25 11:52:38;;;;;;;0.63;0.50;;;14.70;98.30;;;;;;4938273;29;20482;-91
2021/10/25 11:55:07;;;;;;;0.40;0.30;;;14.60;97.30;;;;;;4938069;29;21046;-90
2021/10/25 11:57:35;;;;;;;0.53;0.40;;;14.50;95.50;;;;;;4938426;29;20854;-91
2021/10/25 12:00:06;;;;;;;0.40;0.40;;;14.40;96.00;;;;;;4937970;29;20443;-91
2021/10/25 12:02:34;;;;;;;0.40;0.30;;;14.30;96.50;;;;;;4938179;29;20487;-91
2021/10/25 12:05:03;;;;;;;0.30;0.30;;;14.20;96.50;;;;;;4938635;29;20530;-92
2021/10/25 12:07:30;;;;;;;0.50;0.50;;;14.20;96.50;;;;;;4937999;29;20487;-87
2021/10/25 12:10:01;;;;;;;0.40;0.40;;;14.10;96.90;;;;;;4937891;29;20458;-92
2021/10/25 12:12:28;;;;;;;2.67;0.60;;;14.10;95.20;;;;;;4937999;29;20483;-90
2021/10/25 12:14:59;;;;;;;0.40;0.30;;;14.00;95.90;;;;;;4937535;29;20466;-86
2021/10/25 12:17:30;;;;;;;1.27;0.40;;;14.00;96.80;;;;;;4937731;29;20510;-89
2021/10/25 12:19:57;;;;;;;0.60;0.50;;;14.10;95.20;;;;;;4937619;29;20903;-89
2021/10/25 12:22:25;;;;;;;0.30;0.30;;;14.10;94.30;;;;;;4937805;29;20478;-90
2021/10/25 12:24:55;;;;;;;0.67;0.40;;;14.10;94.70;;;;;;4937978;29;20444;-89
2021/10/25 12:27:26;;;;;;;0.30;0.30;;;14.10;94.60;;;;;;4937776;29;20448;-90
2021/10/25 12:30:08;;;;;;;0.63;0.40;;;14.10;94.30;;;;;;4937908;29;20792;-90
2021/10/25 12:32:35;;;;;;;0.40;0.37;;;14.10;95.00;;;;;;4936907;29;20487;-91
2021/10/25 12:35:04;;;;;;;0.37;0.30;;;14.10;95.90;;;;;;4937772;29;20502;-89
2021/10/25 12:37:34;;;;;;;0.40;0.30;;;14.10;96.20;;;;;;4937760;29;20449;-90
2021/10/25 12:40:01;;;;;;;0.50;0.37;;;14.20;95.20;;;;;;4937706;29;20412;-91
2021/10/25 12:42:42;;;;;;;0.40;0.37;;;14.20;94.40;;;;;;4938629;29;20467;-90
2021/10/25 12:45:15;;;;;;;0.40;0.33;;;14.40;94.70;;;;;;4947129;29;20442;-89
2021/10/25 12:47:42;;;;;;;1.30;0.43;;;14.40;95.60;;;;;;4949480;29;20507;-90
2021/10/25 12:50:14;;;;;;;0.50;0.40;;;14.50;95.60;;;;;;4942070;29;20455;-89
2021/10/25 12:52:44;;;;;;;0.87;0.30;;;14.40;96.70;;;;;;4937232;29;21124;-91
2021/10/25 12:55:12;;;;;;;0.50;0.30;;;14.40;97.30;;;;;;4937205;29;20494;-91
2021/10/25 12:57:41;;;;;;;0.40;0.40;;;14.30;98.50;;;;;;4937337;29;20444;-91
2021/10/25 13:00:11;;;;;;;0.40;0.40;;;14.20;97.70;;;;;;4937186;29;20447;-91
2021/10/25 13:02:43;;;;;;;0.40;0.30;;;14.10;98.40;;;;;;4937328;29;20482;-91
2021/10/25 13:05:15;;;;;;;0.37;0.30;;;14.10;98.90;;;;;;4937243;29;20463;-90
2021/10/25 13:07:51;;;;;;;0.60;0.50;;;14.00;99.40;;;;;;4937099;29;20502;-91
2021/10/25 13:10:20;;;;;;;0.40;0.30;;;13.90;99.20;;;;;;4937251;29;20443;-89
2021/10/25 13:12:47;;;;;;;0.40;0.37;;;13.90;98.90;;;;;;4936812;29;21014;-89
2021/10/25 13:15:14;;;;;;;1.50;0.50;;;13.90;98.60;;;;;;4937232;29;20431;-91
2021/10/25 13:17:42;;;;;;;0.40;0.30;;;13.90;99.20;;;;;;4936551;29;20482;-86
2021/10/25 13:20:14;;;;;;;0.40;0.40;;;13.90;99.30;;;;;;4936614;29;20509;-92
2021/10/25 13:22:41;;;;;;;0.40;0.30;;;14.00;98.60;;;;;;4937199;29;20478;-92
2021/10/25 13:25:09;;;;;;;0.40;0.40;;;14.10;98.80;;;;;;4937142;29;20498;-92
2021/10/25 13:27:38;;;;;;;0.43;0.43;;;14.10;98.70;;;;;;4936961;29;20816;-92
2021/10/25 13:30:05;;;;;;;0.40;0.40;;;14.20;97.80;;;;;;4937063;29;20455;-93
2021/10/25 13:32:32;;;;;;;1.70;0.40;;;14.20;97.90;;;;;;4936959;29;20475;-93
2021/10/25 13:35:00;;;;;;;0.40;0.40;;;14.20;99.00;;;;;;4937232;29;20447;-93
2021/10/25 13:37:27;;;;;;;0.40;0.30;;;14.10;99.90;;;;;;4937410;29;20490;-92
2021/10/25 13:39:53;;;;;;;0.50;0.50;;;14.00;99.40;;;;;;4937838;29;20454;-93
2021/10/25 13:42:22;;;;;;;0.60;0.60;;;14.10;99.50;;;;;;4941302;29;20469;-92
2021/10/25 13:44:48;;;;;;;0.50;0.30;;;14.00;99.90;;;;;;4937647;29;20450;-92
2021/10/25 13:47:15;;;;;;;0.40;0.40;;;14.00;99.50;;;;;;4937176;29;20889;-90
2021/10/25 13:49:42;;;;;;;0.83;0.40;;;14.00;97.50;;;;;;4940727;29;20493;-92
2021/10/25 13:52:09;;;;;;;0.40;0.30;;;14.00;97.20;;;;;;4951785;29;20542;-91
2021/10/25 13:54:37;;;;;;;0.50;0.50;;;14.00;97.90;;;;;;4952709;29;20461;-90
2021/10/25 13:57:07;;;;;;;0.40;0.40;;;13.90;97.40;;;;;;4945945;29;20440;-92
2021/10/25 13:59:36;;;;;;;1.43;0.40;;;13.90;97.20;;;;;;4937079;29;20970;-91
2021/10/25 14:02:05;;;;;;;0.30;0.27;;;13.80;97.10;;;;;;4936372;29;20479;-93
2021/10/25 14:04:33;;;;;;;0.50;0.47;;;13.90;96.80;;;;;;4936997;29;20439;-93
2021/10/25 14:07:00;;;;;;;3.80;0.50;;;13.90;96.60;;;;;;4936545;29;20459;-91
2021/10/25 14:09:27;;;;;;;0.47;0.47;;;13.90;96.90;;;;;;4936312;29;21007;-92
2021/10/25 14:11:58;;;;;;;0.50;0.50;;;13.90;96.40;;;;;;4939018;29;20475;-92
2021/10/25 14:14:27;;;;;;;0.50;0.40;;;13.80;97.00;;;;;;4940450;29;20443;-92